sensor_id;sensor_type;location;lat;lon;timestamp;pressure;altitude;pressure_sealevel;temperature
37536;BMP180;23379;51.554;6.736;2022-08-24T00:00:38;101218.00;;;21.20
37536;BMP180;23379;51.554;6.736;2022-08-24T00:03:04;101212.00;;;21.30
37536;BMP180;23379;51.554;6.736;2022-08-24T00:05:29;101218.00;;;21.10
37536;BMP180;23379;51.554;6.736;2022-08-24T00:07:54;101213.00;;;21.10
37536;BMP180;23379;51.554;6.736;2022-08-24T00:10:20;101214.00;;;21.20
37536;BMP180;23379;51.554;6.736;2022-08-24T00:12:45;101213.00;;;21.30
37536;BMP180;23379;51.554;6.736;2022-08-24T00:15:11;101217.00;;;21.20
37536;BMP180;23379;51.554;6.736;2022-08-24T00:17:37;101216.00;;;21.10
37536;BMP180;23379;51.554;6.736;2022-08-24T00:20:03;101210.00;;;21.10
37536;BMP180;23379;51.554;6.736;2022-08-24T00:22:29;101207.00;;;21.10
37536;BMP180;23379;51.554;6.736;2022-08-24T00:24:54;101210.00;;;21.00
37536;BMP180;23379;51.554;6.736;2022-08-24T00:27:20;101210.00;;;21.00
37536;BMP180;23379;51.554;6.736;2022-08-24T00:29:46;101212.00;;;20.90
37536;BMP180;23379;51.554;6.736;2022-08-24T00:32:11;101215.00;;;21.00
37536;BMP180;23379;51.554;6.736;2022-08-24T00:34:36;101215.00;;;21.00
37536;BMP180;23379;51.554;6.736;2022-08-24T00:37:02;101225.00;;;20.90
37536;BMP180;23379;51.554;6.736;2022-08-24T00:39:27;101215.00;;;20.70
37536;BMP180;23379;51.554;6.736;2022-08-24T00:41:53;101215.00;;;20.50
37536;BMP180;23379;51.554;6.736;2022-08-24T00:44:18;101217.00;;;20.70
37536;BMP180;23379;51.554;6.736;2022-08-24T00:49:17;101216.00;;;20.70
37536;BMP180;23379;51.554;6.736;2022-08-24T00:51:50;101217.00;;;20.70
37536;BMP180;23379;51.554;6.736;2022-08-24T00:54:17;101215.00;;;20.70
37536;BMP180;23379;51.554;6.736;2022-08-24T00:56:44;101207.00;;;20.60
37536;BMP180;23379;51.554;6.736;2022-08-24T00:59:13;101202.00;;;20.50
37536;BMP180;23379;51.554;6.736;2022-08-24T01:01:39;101212.00;;;20.50
37536;BMP180;23379;51.554;6.736;2022-08-24T01:04:05;101212.00;;;20.40
37536;BMP180;23379;51.554;6.736;2022-08-24T01:06:32;101211.00;;;20.30
37536;BMP180;23379;51.554;6.736;2022-08-24T01:08:58;101208.00;;;20.40
37536;BMP180;23379;51.554;6.736;2022-08-24T01:11:24;101219.00;;;20.50
37536;BMP180;23379;51.554;6.736;2022-08-24T01:13:51;101201.00;;;20.20
37536;BMP180;23379;51.554;6.736;2022-08-24T01:16:17;101207.00;;;20.10
37536;BMP180;23379;51.554;6.736;2022-08-24T01:19:03;101209.00;;;20.30
37536;BMP180;23379;51.554;6.736;2022-08-24T01:21:37;101200.00;;;20.20
37536;BMP180;23379;51.554;6.736;2022-08-24T01:24:05;101201.00;;;20.20
37536;BMP180;23379;51.554;6.736;2022-08-24T01:26:38;101196.00;;;20.30
37536;BMP180;23379;51.554;6.736;2022-08-24T01:29:09;101198.00;;;20.20
37536;BMP180;23379;51.554;6.736;2022-08-24T01:31:35;101198.00;;;20.20
37536;BMP180;23379;51.554;6.736;2022-08-24T01:34:00;101208.00;;;20.20
37536;BMP180;23379;51.554;6.736;2022-08-24T01:38:51;101205.00;;;20.20
37536;BMP180;23379;51.554;6.736;2022-08-24T01:41:17;101209.00;;;20.30
37536;BMP180;23379;51.554;6.736;2022-08-24T01:43:42;101207.00;;;20.30
37536;BMP180;23379;51.554;6.736;2022-08-24T01:46:08;101207.00;;;20.10
37536;BMP180;23379;51.554;6.736;2022-08-24T01:48:33;101209.00;;;20.20
37536;BMP180;23379;51.554;6.736;2022-08-24T01:50:58;101216.00;;;20.10
37536;BMP180;23379;51.554;6.736;2022-08-24T01:53:24;101223.00;;;20.00
37536;BMP180;23379;51.554;6.736;2022-08-24T01:55:49;101222.00;;;20.10
37536;BMP180;23379;51.554;6.736;2022-08-24T01:58:15;101220.00;;;20.10
37536;BMP180;23379;51.554;6.736;2022-08-24T02:00:40;101215.00;;;20.00
37536;BMP180;23379;51.554;6.736;2022-08-24T02:03:05;101214.00;;;20.00
37536;BMP180;23379;51.554;6.736;2022-08-24T02:05:31;101219.00;;;19.90
37536;BMP180;23379;51.554;6.736;2022-08-24T02:07:56;101214.00;;;19.90
37536;BMP180;23379;51.554;6.736;2022-08-24T02:10:22;101219.00;;;20.00
37536;BMP180;23379;51.554;6.736;2022-08-24T02:12:47;101217.00;;;20.00
37536;BMP180;23379;51.554;6.736;2022-08-24T02:15:26;101223.00;;;19.70
37536;BMP180;23379;51.554;6.736;2022-08-24T02:17:52;101224.00;;;19.90
37536;BMP180;23379;51.554;6.736;2022-08-24T02:20:19;101227.00;;;19.80
37536;BMP180;23379;51.554;6.736;2022-08-24T02:22:46;101226.00;;;19.80
37536;BMP180;23379;51.554;6.736;2022-08-24T02:25:11;101231.00;;;19.90
37536;BMP180;23379;51.554;6.736;2022-08-24T02:27:37;101219.00;;;19.70
37536;BMP180;23379;51.554;6.736;2022-08-24T02:30:02;101229.00;;;19.70
37536;BMP180;23379;51.554;6.736;2022-08-24T02:32:27;101229.00;;;19.60
37536;BMP180;23379;51.554;6.736;2022-08-24T02:34:53;101229.00;;;19.60
37536;BMP180;23379;51.554;6.736;2022-08-24T02:37:18;101220.00;;;19.30
37536;BMP180;23379;51.554;6.736;2022-08-24T02:39:43;101220.00;;;19.40
37536;BMP180;23379;51.554;6.736;2022-08-24T02:42:09;101224.00;;;19.50
37536;BMP180;23379;51.554;6.736;2022-08-24T02:44:34;101219.00;;;19.40
37536;BMP180;23379;51.554;6.736;2022-08-24T02:46:59;101229.00;;;19.50
37536;BMP180;23379;51.554;6.736;2022-08-24T02:49:24;101221.00;;;19.50
37536;BMP180;23379;51.554;6.736;2022-08-24T02:51:50;101224.00;;;19.50
37536;BMP180;23379;51.554;6.736;2022-08-24T02:54:15;101220.00;;;19.40
37536;BMP180;23379;51.554;6.736;2022-08-24T02:56:42;101230.00;;;19.40
37536;BMP180;23379;51.554;6.736;2022-08-24T02:59:07;101222.00;;;19.40
37536;BMP180;23379;51.554;6.736;2022-08-24T03:01:32;101227.00;;;19.30
37536;BMP180;23379;51.554;6.736;2022-08-24T03:03:58;101215.00;;;19.30
37536;BMP180;23379;51.554;6.736;2022-08-24T03:06:23;101215.00;;;19.30
37536;BMP180;23379;51.554;6.736;2022-08-24T03:08:48;101226.00;;;19.40
37536;BMP180;23379;51.554;6.736;2022-08-24T03:11:15;101222.00;;;19.40
37536;BMP180;23379;51.554;6.736;2022-08-24T03:13:40;101224.00;;;19.40
37536;BMP180;23379;51.554;6.736;2022-08-24T03:16:05;101224.00;;;19.20
37536;BMP180;23379;51.554;6.736;2022-08-24T03:18:31;101219.00;;;19.30
37536;BMP180;23379;51.554;6.736;2022-08-24T03:20:57;101226.00;;;19.10
37536;BMP180;23379;51.554;6.736;2022-08-24T03:23:23;101229.00;;;19.20
37536;BMP180;23379;51.554;6.736;2022-08-24T03:25:51;101229.00;;;19.10
37536;BMP180;23379;51.554;6.736;2022-08-24T03:28:17;101234.00;;;19.10
37536;BMP180;23379;51.554;6.736;2022-08-24T03:30:43;101233.00;;;19.10
37536;BMP180;23379;51.554;6.736;2022-08-24T03:33:09;101230.00;;;19.10
37536;BMP180;23379;51.554;6.736;2022-08-24T03:35:35;101229.00;;;19.00
37536;BMP180;23379;51.554;6.736;2022-08-24T03:38:00;101234.00;;;19.20
37536;BMP180;23379;51.554;6.736;2022-08-24T03:40:26;101231.00;;;19.10
37536;BMP180;23379;51.554;6.736;2022-08-24T03:42:51;101224.00;;;18.80
37536;BMP180;23379;51.554;6.736;2022-08-24T03:45:17;101225.00;;;18.80
37536;BMP180;23379;51.554;6.736;2022-08-24T03:47:42;101231.00;;;18.90
37536;BMP180;23379;51.554;6.736;2022-08-24T03:50:09;101221.00;;;18.80
37536;BMP180;23379;51.554;6.736;2022-08-24T03:52:35;101221.00;;;19.00
37536;BMP180;23379;51.554;6.736;2022-08-24T03:55:03;101224.00;;;18.90
37536;BMP180;23379;51.554;6.736;2022-08-24T03:57:30;101217.00;;;18.90
37536;BMP180;23379;51.554;6.736;2022-08-24T03:59:55;101217.00;;;19.00
37536;BMP180;23379;51.554;6.736;2022-08-24T04:02:20;101225.00;;;19.10
37536;BMP180;23379;51.554;6.736;2022-08-24T04:04:45;101225.00;;;19.10
37536;BMP180;23379;51.554;6.736;2022-08-24T04:07:11;101219.00;;;19.10
37536;BMP180;23379;51.554;6.736;2022-08-24T04:09:36;101221.00;;;18.70
37536;BMP180;23379;51.554;6.736;2022-08-24T04:12:02;101220.00;;;18.80
37536;BMP180;23379;51.554;6.736;2022-08-24T04:14:27;101220.00;;;18.80
37536;BMP180;23379;51.554;6.736;2022-08-24T04:16:52;101221.00;;;18.70
37536;BMP180;23379;51.554;6.736;2022-08-24T04:19:18;101222.00;;;18.60
37536;BMP180;23379;51.554;6.736;2022-08-24T04:21:43;101227.00;;;18.80
37536;BMP180;23379;51.554;6.736;2022-08-24T04:24:08;101225.00;;;18.60
37536;BMP180;23379;51.554;6.736;2022-08-24T04:26:34;101224.00;;;18.70
37536;BMP180;23379;51.554;6.736;2022-08-24T04:29:00;101230.00;;;18.80
37536;BMP180;23379;51.554;6.736;2022-08-24T04:31:28;101230.00;;;19.00
37536;BMP180;23379;51.554;6.736;2022-08-24T04:33:55;101222.00;;;18.90
37536;BMP180;23379;51.554;6.736;2022-08-24T04:36:20;101223.00;;;18.90
37536;BMP180;23379;51.554;6.736;2022-08-24T04:38:46;101227.00;;;18.80
37536;BMP180;23379;51.554;6.736;2022-08-24T04:41:12;101224.00;;;18.80
37536;BMP180;23379;51.554;6.736;2022-08-24T04:43:38;101226.00;;;18.80
37536;BMP180;23379;51.554;6.736;2022-08-24T04:46:05;101230.00;;;18.90
37536;BMP180;23379;51.554;6.736;2022-08-24T04:48:30;101235.00;;;18.70
37536;BMP180;23379;51.554;6.736;2022-08-24T04:50:59;101237.00;;;18.40
37536;BMP180;23379;51.554;6.736;2022-08-24T04:53:25;101237.00;;;18.60
37536;BMP180;23379;51.554;6.736;2022-08-24T04:55:50;101235.00;;;18.90
37536;BMP180;23379;51.554;6.736;2022-08-24T04:58:16;101238.00;;;18.90
37536;BMP180;23379;51.554;6.736;2022-08-24T05:00:42;101248.00;;;19.00
37536;BMP180;23379;51.554;6.736;2022-08-24T05:03:07;101246.00;;;18.90
37536;BMP180;23379;51.554;6.736;2022-08-24T05:05:34;101252.00;;;19.10
37536;BMP180;23379;51.554;6.736;2022-08-24T05:08:03;101257.00;;;19.00
37536;BMP180;23379;51.554;6.736;2022-08-24T05:10:28;101255.00;;;19.10
37536;BMP180;23379;51.554;6.736;2022-08-24T05:12:54;101251.00;;;19.20
37536;BMP180;23379;51.554;6.736;2022-08-24T05:15:19;101254.00;;;19.00
37536;BMP180;23379;51.554;6.736;2022-08-24T05:17:44;101252.00;;;18.90
37536;BMP180;23379;51.554;6.736;2022-08-24T05:20:10;101266.00;;;19.20
37536;BMP180;23379;51.554;6.736;2022-08-24T05:22:35;101271.00;;;19.40
37536;BMP180;23379;51.554;6.736;2022-08-24T05:25:01;101277.00;;;19.60
37536;BMP180;23379;51.554;6.736;2022-08-24T05:27:26;101268.00;;;19.60
37536;BMP180;23379;51.554;6.736;2022-08-24T05:29:55;101269.00;;;19.80
37536;BMP180;23379;51.554;6.736;2022-08-24T05:32:20;101279.00;;;20.10
37536;BMP180;23379;51.554;6.736;2022-08-24T05:34:45;101279.00;;;21.20
37536;BMP180;23379;51.554;6.736;2022-08-24T05:37:11;101283.00;;;21.40
37536;BMP180;23379;51.554;6.736;2022-08-24T05:39:36;101281.00;;;21.60
37536;BMP180;23379;51.554;6.736;2022-08-24T05:42:02;101283.00;;;22.00
37536;BMP180;23379;51.554;6.736;2022-08-24T05:44:28;101289.00;;;22.30
37536;BMP180;23379;51.554;6.736;2022-08-24T05:46:55;101280.00;;;22.20
37536;BMP180;23379;51.554;6.736;2022-08-24T05:49:22;101280.00;;;22.10
37536;BMP180;23379;51.554;6.736;2022-08-24T05:51:48;101278.00;;;22.10
37536;BMP180;23379;51.554;6.736;2022-08-24T05:54:13;101289.00;;;22.20
37536;BMP180;23379;51.554;6.736;2022-08-24T05:56:38;101281.00;;;22.00
37536;BMP180;23379;51.554;6.736;2022-08-24T05:59:04;101282.00;;;22.00
37536;BMP180;23379;51.554;6.736;2022-08-24T06:01:29;101286.00;;;22.20
37536;BMP180;23379;51.554;6.736;2022-08-24T06:03:55;101290.00;;;22.40
37536;BMP180;23379;51.554;6.736;2022-08-24T06:06:21;101283.00;;;22.50
37536;BMP180;23379;51.554;6.736;2022-08-24T06:08:48;101289.00;;;22.40
37536;BMP180;23379;51.554;6.736;2022-08-24T06:11:24;101296.00;;;22.50
37536;BMP180;23379;51.554;6.736;2022-08-24T06:13:50;101291.00;;;22.60
37536;BMP180;23379;51.554;6.736;2022-08-24T06:16:16;101293.00;;;22.30
37536;BMP180;23379;51.554;6.736;2022-08-24T06:18:41;101295.00;;;22.20
37536;BMP180;23379;51.554;6.736;2022-08-24T06:21:11;101299.00;;;22.40
37536;BMP180;23379;51.554;6.736;2022-08-24T06:23:37;101304.00;;;22.70
37536;BMP180;23379;51.554;6.736;2022-08-24T06:26:03;101292.00;;;22.90
37536;BMP180;23379;51.554;6.736;2022-08-24T06:28:47;101297.00;;;23.10
37536;BMP180;23379;51.554;6.736;2022-08-24T06:31:12;101298.00;;;23.10
37536;BMP180;23379;51.554;6.736;2022-08-24T06:33:38;101302.00;;;23.30
37536;BMP180;23379;51.554;6.736;2022-08-24T06:36:03;101306.00;;;23.40
37536;BMP180;23379;51.554;6.736;2022-08-24T06:38:29;101310.00;;;23.20
37536;BMP180;23379;51.554;6.736;2022-08-24T06:40:55;101306.00;;;23.50
37536;BMP180;23379;51.554;6.736;2022-08-24T06:43:20;101315.00;;;23.50
37536;BMP180;23379;51.554;6.736;2022-08-24T06:45:45;101318.00;;;23.50
37536;BMP180;23379;51.554;6.736;2022-08-24T06:48:11;101313.00;;;23.60
37536;BMP180;23379;51.554;6.736;2022-08-24T06:50:37;101315.00;;;23.70
37536;BMP180;23379;51.554;6.736;2022-08-24T06:53:02;101318.00;;;23.40
37536;BMP180;23379;51.554;6.736;2022-08-24T06:55:28;101311.00;;;23.50
37536;BMP180;23379;51.554;6.736;2022-08-24T06:57:53;101331.00;;;23.70
37536;BMP180;23379;51.554;6.736;2022-08-24T07:00:20;101329.00;;;23.80
37536;BMP180;23379;51.554;6.736;2022-08-24T07:02:45;101329.00;;;24.10
37536;BMP180;23379;51.554;6.736;2022-08-24T07:05:11;101328.00;;;24.40
37536;BMP180;23379;51.554;6.736;2022-08-24T07:07:36;101324.00;;;24.00
37536;BMP180;23379;51.554;6.736;2022-08-24T07:10:02;101325.00;;;24.40
37536;BMP180;23379;51.554;6.736;2022-08-24T07:12:27;101321.00;;;24.80
37536;BMP180;23379;51.554;6.736;2022-08-24T07:14:54;101321.00;;;25.20
37536;BMP180;23379;51.554;6.736;2022-08-24T07:17:19;101336.00;;;25.50
37536;BMP180;23379;51.554;6.736;2022-08-24T07:19:44;101331.00;;;25.70
37536;BMP180;23379;51.554;6.736;2022-08-24T07:22:12;101334.00;;;25.90
37536;BMP180;23379;51.554;6.736;2022-08-24T07:24:38;101337.00;;;26.00
37536;BMP180;23379;51.554;6.736;2022-08-24T07:27:03;101345.00;;;25.80
37536;BMP180;23379;51.554;6.736;2022-08-24T07:29:29;101342.00;;;26.40
37536;BMP180;23379;51.554;6.736;2022-08-24T07:31:55;101342.00;;;26.70
37536;BMP180;23379;51.554;6.736;2022-08-24T07:34:21;101337.00;;;26.80
37536;BMP180;23379;51.554;6.736;2022-08-24T07:36:46;101351.00;;;27.30
37536;BMP180;23379;51.554;6.736;2022-08-24T07:39:12;101352.00;;;27.90
37536;BMP180;23379;51.554;6.736;2022-08-24T07:41:38;101349.00;;;28.40
37536;BMP180;23379;51.554;6.736;2022-08-24T07:44:04;101350.00;;;29.00
37536;BMP180;23379;51.554;6.736;2022-08-24T07:46:29;101356.00;;;29.60
37536;BMP180;23379;51.554;6.736;2022-08-24T07:48:56;101361.00;;;30.00
37536;BMP180;23379;51.554;6.736;2022-08-24T07:51:21;101351.00;;;30.80
37536;BMP180;23379;51.554;6.736;2022-08-24T07:53:46;101361.00;;;30.40
37536;BMP180;23379;51.554;6.736;2022-08-24T07:56:12;101361.00;;;29.90
37536;BMP180;23379;51.554;6.736;2022-08-24T07:58:37;101367.00;;;29.70
37536;BMP180;23379;51.554;6.736;2022-08-24T08:01:03;101364.00;;;29.20
37536;BMP180;23379;51.554;6.736;2022-08-24T08:03:29;101368.00;;;29.90
37536;BMP180;23379;51.554;6.736;2022-08-24T08:05:56;101358.00;;;30.00
37536;BMP180;23379;51.554;6.736;2022-08-24T08:08:22;101369.00;;;31.10
37536;BMP180;23379;51.554;6.736;2022-08-24T08:10:47;101374.00;;;31.30
37536;BMP180;23379;51.554;6.736;2022-08-24T08:13:12;101371.00;;;32.30
37536;BMP180;23379;51.554;6.736;2022-08-24T08:15:38;101378.00;;;32.10
37536;BMP180;23379;51.554;6.736;2022-08-24T08:18:03;101386.00;;;34.10
37536;BMP180;23379;51.554;6.736;2022-08-24T08:20:28;101391.00;;;34.90
37536;BMP180;23379;51.554;6.736;2022-08-24T08:22:54;101386.00;;;34.50
37536;BMP180;23379;51.554;6.736;2022-08-24T08:25:38;101398.00;;;35.50
37536;BMP180;23379;51.554;6.736;2022-08-24T08:28:04;101395.00;;;36.60
37536;BMP180;23379;51.554;6.736;2022-08-24T08:30:30;101396.00;;;36.40
37536;BMP180;23379;51.554;6.736;2022-08-24T08:32:55;101395.00;;;36.50
37536;BMP180;23379;51.554;6.736;2022-08-24T08:35:20;101403.00;;;37.00
37536;BMP180;23379;51.554;6.736;2022-08-24T08:37:46;101401.00;;;38.20
37536;BMP180;23379;51.554;6.736;2022-08-24T08:40:16;101398.00;;;36.30
37536;BMP180;23379;51.554;6.736;2022-08-24T08:42:47;101401.00;;;37.00
37536;BMP180;23379;51.554;6.736;2022-08-24T08:48:03;101407.00;;;38.10
37536;BMP180;23379;51.554;6.736;2022-08-24T08:56:05;101412.00;;;37.70
37536;BMP180;23379;51.554;6.736;2022-08-24T09:01:16;101408.00;;;37.70
37536;BMP180;23379;51.554;6.736;2022-08-24T09:16:54;101405.00;;;40.40
37536;BMP180;23379;51.554;6.736;2022-08-24T09:21:57;101412.00;;;39.70
37536;BMP180;23379;51.554;6.736;2022-08-24T09:24:37;101402.00;;;38.30
37536;BMP180;23379;51.554;6.736;2022-08-24T09:27:18;101401.00;;;38.70
37536;BMP180;23379;51.554;6.736;2022-08-24T09:32:36;101414.00;;;39.30
37536;BMP180;23379;51.554;6.736;2022-08-24T09:35:07;101413.00;;;39.70
37536;BMP180;23379;51.554;6.736;2022-08-24T09:37:51;101407.00;;;40.00
37536;BMP180;23379;51.554;6.736;2022-08-24T09:48:20;101408.00;;;39.20
37536;BMP180;23379;51.554;6.736;2022-08-24T09:56:17;101403.00;;;40.10
37536;BMP180;23379;51.554;6.736;2022-08-24T10:01:18;101400.00;;;41.20
37536;BMP180;23379;51.554;6.736;2022-08-24T10:03:51;101388.00;;;39.40
37536;BMP180;23379;51.554;6.736;2022-08-24T10:06:32;101392.00;;;39.60
37536;BMP180;23379;51.554;6.736;2022-08-24T10:12:24;101389.00;;;39.90
37536;BMP180;23379;51.554;6.736;2022-08-24T10:33:25;101382.00;;;41.30
37536;BMP180;23379;51.554;6.736;2022-08-24T10:46:48;101361.00;;;37.10
37536;BMP180;23379;51.554;6.736;2022-08-24T10:54:26;101355.00;;;35.40
37536;BMP180;23379;51.554;6.736;2022-08-24T10:57:05;101349.00;;;37.10
37536;BMP180;23379;51.554;6.736;2022-08-24T11:02:28;101344.00;;;35.00
37536;BMP180;23379;51.554;6.736;2022-08-24T11:04:58;101341.00;;;36.20
37536;BMP180;23379;51.554;6.736;2022-08-24T11:07:24;101356.00;;;38.60
37536;BMP180;23379;51.554;6.736;2022-08-24T11:14:53;101359.00;;;39.70
37536;BMP180;23379;51.554;6.736;2022-08-24T11:17:20;101349.00;;;40.50
37536;BMP180;23379;51.554;6.736;2022-08-24T11:19:46;101358.00;;;42.20
37536;BMP180;23379;51.554;6.736;2022-08-24T11:22:32;101351.00;;;42.60
37536;BMP180;23379;51.554;6.736;2022-08-24T11:25:21;101356.00;;;42.00
37536;BMP180;23379;51.554;6.736;2022-08-24T11:27:50;101362.00;;;41.30
37536;BMP180;23379;51.554;6.736;2022-08-24T11:37:48;101341.00;;;40.20
37536;BMP180;23379;51.554;6.736;2022-08-24T11:40:14;101346.00;;;39.90
37536;BMP180;23379;51.554;6.736;2022-08-24T11:42:50;101341.00;;;39.40
37536;BMP180;23379;51.554;6.736;2022-08-24T12:00:53;101335.00;;;42.80
37536;BMP180;23379;51.554;6.736;2022-08-24T12:03:30;101335.00;;;43.60
37536;BMP180;23379;51.554;6.736;2022-08-24T12:06:09;101334.00;;;45.10
37536;BMP180;23379;51.554;6.736;2022-08-24T12:08:41;101339.00;;;45.20
37536;BMP180;23379;51.554;6.736;2022-08-24T12:11:16;101329.00;;;44.70
37536;BMP180;23379;51.554;6.736;2022-08-24T12:13:53;101326.00;;;43.50
37536;BMP180;23379;51.554;6.736;2022-08-24T12:16:28;101328.00;;;42.80
37536;BMP180;23379;51.554;6.736;2022-08-24T12:21:32;101317.00;;;41.90
37536;BMP180;23379;51.554;6.736;2022-08-24T12:24:00;101320.00;;;42.90
37536;BMP180;23379;51.554;6.736;2022-08-24T12:26:41;101321.00;;;42.40
37536;BMP180;23379;51.554;6.736;2022-08-24T12:31:48;101314.00;;;42.30
37536;BMP180;23379;51.554;6.736;2022-08-24T12:39:35;101317.00;;;38.50
37536;BMP180;23379;51.554;6.736;2022-08-24T12:42:24;101317.00;;;40.50
37536;BMP180;23379;51.554;6.736;2022-08-24T12:44:53;101315.00;;;40.50
37536;BMP180;23379;51.554;6.736;2022-08-24T12:47:26;101314.00;;;41.20
37536;BMP180;23379;51.554;6.736;2022-08-24T12:49:56;101309.00;;;41.00
37536;BMP180;23379;51.554;6.736;2022-08-24T12:52:33;101303.00;;;40.40
37536;BMP180;23379;51.554;6.736;2022-08-24T12:57:58;101316.00;;;42.40
37536;BMP180;23379;51.554;6.736;2022-08-24T13:00:31;101308.00;;;40.50
37536;BMP180;23379;51.554;6.736;2022-08-24T13:02:59;101320.00;;;42.30
37536;BMP180;23379;51.554;6.736;2022-08-24T13:05:26;101316.00;;;40.80
37536;BMP180;23379;51.554;6.736;2022-08-24T13:08:09;101318.00;;;42.60
37536;BMP180;23379;51.554;6.736;2022-08-24T13:10:50;101306.00;;;40.00
37536;BMP180;23379;51.554;6.736;2022-08-24T13:13:20;101310.00;;;39.10
37536;BMP180;23379;51.554;6.736;2022-08-24T13:15:50;101312.00;;;39.10
37536;BMP180;23379;51.554;6.736;2022-08-24T13:33:26;101306.00;;;42.20
37536;BMP180;23379;51.554;6.736;2022-08-24T13:38:25;101305.00;;;40.80
37536;BMP180;23379;51.554;6.736;2022-08-24T13:40:56;101301.00;;;41.10
37536;BMP180;23379;51.554;6.736;2022-08-24T13:43:29;101298.00;;;40.20
37536;BMP180;23379;51.554;6.736;2022-08-24T14:06:55;101279.00;;;40.10
37536;BMP180;23379;51.554;6.736;2022-08-24T14:17:42;101268.00;;;39.00
37536;BMP180;23379;51.554;6.736;2022-08-24T14:23:08;101271.00;;;37.00
37536;BMP180;23379;51.554;6.736;2022-08-24T14:25:37;101269.00;;;35.70
37536;BMP180;23379;51.554;6.736;2022-08-24T14:28:23;101261.00;;;34.80
37536;BMP180;23379;51.554;6.736;2022-08-24T14:31:11;101265.00;;;35.00
37536;BMP180;23379;51.554;6.736;2022-08-24T14:33:34;101262.00;;;34.10
37536;BMP180;23379;51.554;6.736;2022-08-24T14:36:16;101252.00;;;34.90
37536;BMP180;23379;51.554;6.736;2022-08-24T14:54:34;101247.00;;;33.00
37536;BMP180;23379;51.554;6.736;2022-08-24T15:02:37;101238.00;;;32.70
37536;BMP180;23379;51.554;6.736;2022-08-24T15:08:07;101242.00;;;33.30
37536;BMP180;23379;51.554;6.736;2022-08-24T15:10:38;101237.00;;;33.60
37536;BMP180;23379;51.554;6.736;2022-08-24T15:13:07;101225.00;;;33.60
37536;BMP180;23379;51.554;6.736;2022-08-24T15:15:36;101230.00;;;33.50
37536;BMP180;23379;51.554;6.736;2022-08-24T15:23:19;101220.00;;;33.50
37536;BMP180;23379;51.554;6.736;2022-08-24T15:25:49;101222.00;;;34.40
37536;BMP180;23379;51.554;6.736;2022-08-24T15:28:23;101219.00;;;34.70
37536;BMP180;23379;51.554;6.736;2022-08-24T15:30:53;101215.00;;;34.80
37536;BMP180;23379;51.554;6.736;2022-08-24T15:33:18;101213.00;;;33.50
37536;BMP180;23379;51.554;6.736;2022-08-24T15:35:45;101213.00;;;33.90
37536;BMP180;23379;51.554;6.736;2022-08-24T15:40:46;101215.00;;;33.30
37536;BMP180;23379;51.554;6.736;2022-08-24T15:43:13;101205.00;;;33.80
37536;BMP180;23379;51.554;6.736;2022-08-24T15:45:43;101209.00;;;33.80
37536;BMP180;23379;51.554;6.736;2022-08-24T15:48:10;101208.00;;;34.00
37536;BMP180;23379;51.554;6.736;2022-08-24T15:50:43;101207.00;;;34.20
37536;BMP180;23379;51.554;6.736;2022-08-24T15:55:47;101209.00;;;33.80
37536;BMP180;23379;51.554;6.736;2022-08-24T15:58:22;101200.00;;;33.70
37536;BMP180;23379;51.554;6.736;2022-08-24T16:00:49;101206.00;;;33.10
37536;BMP180;23379;51.554;6.736;2022-08-24T16:03:43;101202.00;;;32.90
37536;BMP180;23379;51.554;6.736;2022-08-24T16:06:17;101202.00;;;32.80
37536;BMP180;23379;51.554;6.736;2022-08-24T16:08:49;101202.00;;;32.90
37536;BMP180;23379;51.554;6.736;2022-08-24T16:11:20;101200.00;;;33.00
37536;BMP180;23379;51.554;6.736;2022-08-24T16:13:50;101196.00;;;32.90
37536;BMP180;23379;51.554;6.736;2022-08-24T16:16:15;101197.00;;;32.70
37536;BMP180;23379;51.554;6.736;2022-08-24T16:18:46;101204.00;;;32.70
37536;BMP180;23379;51.554;6.736;2022-08-24T16:21:13;101194.00;;;32.40
37536;BMP180;23379;51.554;6.736;2022-08-24T16:23:39;101202.00;;;32.10
37536;BMP180;23379;51.554;6.736;2022-08-24T16:26:21;101200.00;;;32.10
37536;BMP180;23379;51.554;6.736;2022-08-24T16:28:48;101205.00;;;32.20
37536;BMP180;23379;51.554;6.736;2022-08-24T16:31:41;101198.00;;;31.90
37536;BMP180;23379;51.554;6.736;2022-08-24T16:36:43;101201.00;;;32.20
37536;BMP180;23379;51.554;6.736;2022-08-24T16:39:09;101201.00;;;32.10
37536;BMP180;23379;51.554;6.736;2022-08-24T16:41:34;101196.00;;;32.20
37536;BMP180;23379;51.554;6.736;2022-08-24T16:44:02;101198.00;;;31.90
37536;BMP180;23379;51.554;6.736;2022-08-24T16:46:28;101194.00;;;31.90
37536;BMP180;23379;51.554;6.736;2022-08-24T16:48:53;101195.00;;;31.80
37536;BMP180;23379;51.554;6.736;2022-08-24T16:51:18;101196.00;;;31.80
37536;BMP180;23379;51.554;6.736;2022-08-24T16:53:44;101194.00;;;31.90
37536;BMP180;23379;51.554;6.736;2022-08-24T16:56:10;101197.00;;;32.00
37536;BMP180;23379;51.554;6.736;2022-08-24T16:58:35;101194.00;;;32.00
37536;BMP180;23379;51.554;6.736;2022-08-24T17:01:01;101196.00;;;32.00
37536;BMP180;23379;51.554;6.736;2022-08-24T17:03:27;101190.00;;;31.70
37536;BMP180;23379;51.554;6.736;2022-08-24T17:05:53;101194.00;;;31.80
37536;BMP180;23379;51.554;6.736;2022-08-24T17:08:19;101195.00;;;31.70
37536;BMP180;23379;51.554;6.736;2022-08-24T17:10:44;101193.00;;;31.80
37536;BMP180;23379;51.554;6.736;2022-08-24T17:13:10;101183.00;;;31.40
37536;BMP180;23379;51.554;6.736;2022-08-24T17:15:35;101200.00;;;31.20
37536;BMP180;23379;51.554;6.736;2022-08-24T17:18:02;101192.00;;;31.50
37536;BMP180;23379;51.554;6.736;2022-08-24T17:20:29;101192.00;;;31.60
37536;BMP180;23379;51.554;6.736;2022-08-24T17:22:54;101194.00;;;31.60
37536;BMP180;23379;51.554;6.736;2022-08-24T17:25:20;101204.00;;;31.30
37536;BMP180;23379;51.554;6.736;2022-08-24T17:27:45;101194.00;;;31.40
37536;BMP180;23379;51.554;6.736;2022-08-24T17:30:11;101196.00;;;31.40
37536;BMP180;23379;51.554;6.736;2022-08-24T17:32:40;101192.00;;;31.40
37536;BMP180;23379;51.554;6.736;2022-08-24T17:35:06;101191.00;;;31.20
37536;BMP180;23379;51.554;6.736;2022-08-24T17:37:31;101203.00;;;31.10
37536;BMP180;23379;51.554;6.736;2022-08-24T17:39:57;101196.00;;;31.50